Time;durP1;ratioP1;P1;durP2;ratioP2;P2;SDS_P1;SDS_P2;PMS_P1;PMS_P2;Temp;Humidity;BMP_temperature;BMP_pressure;BME280_temperature;BME280_humidity;BME280_pressure;Samples;Min_cycle;Max_cycle;Signal;HPM_P1;HPM_P2
2021/12/21 00:00:52;;;;;;;21.55;12.15;;;-0.10;99.90;;;;;;5009943;28;20481;-52
2021/12/21 00:03:17;;;;;;;22.08;11.95;;;-0.10;99.90;;;;;;5008158;28;20393;-52
2021/12/21 00:05:44;;;;;;;21.65;13.18;;;-0.10;99.90;;;;;;5010264;28;20385;-53
2021/12/21 00:08:12;;;;;;;25.60;12.80;;;-0.20;99.90;;;;;;5009057;28;20739;-52
2021/12/21 00:10:40;;;;;;;21.35;11.80;;;-0.20;99.90;;;;;;5007786;28;20396;-52
2021/12/21 00:13:10;;;;;;;21.50;11.88;;;0.30;99.90;;;;;;5010067;28;20512;-53
2021/12/21 00:18:18;;;;;;;22.60;10.70;;;-0.10;99.90;;;;;;5009997;28;20395;-52
2021/12/21 00:25:55;;;;;;;21.75;11.20;;;-0.10;99.90;;;;;;5009423;28;20384;-52
2021/12/21 00:28:20;;;;;;;21.63;10.70;;;-0.10;99.90;;;;;;5008808;28;20739;-52
2021/12/21 00:30:46;;;;;;;23.30;11.20;;;-0.10;99.90;;;;;;5009746;28;20396;-53
2021/12/21 00:33:12;;;;;;;21.23;11.03;;;-0.20;99.90;;;;;;5009111;28;20488;-52
2021/12/21 00:35:37;;;;;;;21.73;10.02;;;-0.20;99.90;;;;;;5009453;28;20373;-53
2021/12/21 00:38:04;;;;;;;22.53;10.50;;;-0.20;99.90;;;;;;5008217;28;20401;-53
2021/12/21 00:40:31;;;;;;;19.58;10.20;;;-0.20;99.90;;;;;;5008828;28;20377;-52
2021/12/21 00:42:57;;;;;;;19.93;9.50;;;-0.20;99.90;;;;;;5009237;28;20384;-53
2021/12/21 00:45:23;;;;;;;19.30;9.63;;;-0.20;99.90;;;;;;5008576;28;20408;-52
2021/12/21 00:47:49;;;;;;;20.40;9.95;;;-0.20;99.90;;;;;;5009249;28;20433;-53
2021/12/21 00:50:19;;;;;;;17.75;9.50;;;0.00;99.90;;;;;;5008633;28;20405;-52
2021/12/21 00:52:47;;;;;;;19.23;9.50;;;-0.20;99.90;;;;;;5009028;28;20413;-53
2021/12/21 00:55:14;;;;;;;30.20;9.93;;;0.00;99.90;;;;;;5008410;28;20396;-52
2021/12/21 00:57:40;;;;;;;22.07;8.70;;;-0.30;99.90;;;;;;5008230;28;20389;-53
2021/12/21 01:00:09;;;;;;;22.10;9.20;;;1.10;99.90;;;;;;5009294;28;20916;-52
2021/12/21 01:02:35;;;;;;;19.23;9.30;;;-0.30;99.90;;;;;;5008768;28;20389;-53
2021/12/21 01:05:05;;;;;;;19.35;9.70;;;-0.10;99.90;;;;;;5005492;28;20412;-53
2021/12/21 01:07:39;;;;;;;18.15;8.93;;;-0.30;99.90;;;;;;5008249;28;20472;-52
2021/12/21 01:10:53;;;;;;;24.75;8.93;;;-0.30;99.90;;;;;;5006993;28;20431;-53
2021/12/21 01:18:14;;;;;;;22.40;8.60;;;-0.30;99.90;;;;;;5006865;28;20381;-53
2021/12/21 01:20:47;;;;;;;24.50;12.38;;;-0.30;99.90;;;;;;5009029;28;20373;-53
2021/12/21 01:25:49;;;;;;;24.35;9.73;;;-0.30;99.90;;;;;;5009187;28;20404;-54
2021/12/21 01:36:12;;;;;;;17.73;9.50;;;-0.40;99.90;;;;;;5006090;28;20388;-53
2021/12/21 01:38:54;;;;;;;24.30;9.68;;;-0.50;99.90;;;;;;5009070;28;20408;-53
2021/12/21 01:41:29;;;;;;;18.58;9.95;;;-0.50;99.90;;;;;;5007732;28;20381;-53
2021/12/21 01:49:58;;;;;;;20.90;9.80;;;-0.60;99.90;;;;;;5005185;28;20431;-52
2021/12/21 01:52:21;;;;;;;23.85;10.93;;;-0.60;99.90;;;;;;5005745;28;20392;-52
2021/12/21 01:54:47;;;;;;;19.85;10.00;;;0.10;99.90;;;;;;5006239;28;20397;-53
2021/12/21 01:57:14;;;;;;;17.60;9.07;;;-0.20;99.90;;;;;;5008251;28;20412;-52
2021/12/21 01:59:41;;;;;;;19.90;10.30;;;-0.80;99.90;;;;;;5008762;28;20388;-53
2021/12/21 02:02:09;;;;;;;23.95;10.32;;;-0.80;99.90;;;;;;5006252;28;20397;-53
2021/12/21 02:04:36;;;;;;;19.92;8.93;;;-0.80;99.90;;;;;;5008267;28;20464;-53
2021/12/21 02:07:03;;;;;;;19.90;9.33;;;-0.70;99.90;;;;;;5008717;28;20409;-53
2021/12/21 02:09:37;;;;;;;19.83;9.13;;;-0.80;99.90;;;;;;5007867;28;20511;-52
2021/12/21 02:12:07;;;;;;;21.42;9.43;;;-0.90;99.90;;;;;;4992293;28;20405;-54
2021/12/21 02:14:34;;;;;;;22.00;9.98;;;-0.90;99.90;;;;;;5007931;28;20393;-53
2021/12/21 02:20:06;;;;;;;20.83;9.80;;;-0.50;99.90;;;;;;5007799;28;20395;-53
2021/12/21 02:22:35;;;;;;;17.93;9.27;;;-1.10;99.90;;;;;;5003955;28;20461;-53
2021/12/21 02:25:19;;;;;;;20.50;10.10;;;-1.20;99.90;;;;;;5011768;28;20412;-53
2021/12/21 02:27:56;;;;;;;23.67;10.32;;;-1.10;99.90;;;;;;5011531;28;20393;-53
2021/12/21 02:30:23;;;;;;;18.27;10.23;;;-1.00;99.90;;;;;;5009821;28;20409;-53
2021/12/21 02:32:49;;;;;;;22.27;9.88;;;-0.80;99.90;;;;;;5009338;28;20385;-54
2021/12/21 02:35:15;;;;;;;22.83;10.82;;;-0.70;99.90;;;;;;5011157;28;20377;-53
2021/12/21 02:37:41;;;;;;;22.60;10.50;;;-0.60;99.90;;;;;;5011521;28;20435;-53
2021/12/21 02:40:08;;;;;;;22.30;10.80;;;-0.60;99.90;;;;;;5010500;28;20417;-54
2021/12/21 02:42:34;;;;;;;20.40;9.98;;;-0.60;99.90;;;;;;5010837;28;20393;-53
2021/12/21 02:45:00;;;;;;;19.42;9.85;;;-0.60;99.90;;;;;;5011499;28;20475;-53
2021/12/21 02:47:26;;;;;;;20.63;9.47;;;-0.70;99.90;;;;;;5010917;28;20468;-53
2021/12/21 02:49:52;;;;;;;20.37;10.10;;;-0.80;99.90;;;;;;5011342;28;20889;-53
2021/12/21 02:52:18;;;;;;;18.17;8.63;;;-0.80;99.90;;;;;;5010593;28;20454;-53
2021/12/21 02:54:43;;;;;;;21.97;9.50;;;-0.90;99.90;;;;;;5011589;28;20389;-53
2021/12/21 02:57:09;;;;;;;17.77;9.25;;;-0.90;99.90;;;;;;5011508;28;20803;-53
2021/12/21 02:59:35;;;;;;;18.52;8.98;;;-1.00;99.90;;;;;;5010922;28;20452;-53
2021/12/21 03:02:00;;;;;;;19.38;9.02;;;-0.10;99.90;;;;;;5011314;28;20377;-53
2021/12/21 03:04:26;;;;;;;19.77;9.00;;;-1.10;99.90;;;;;;5009288;28;20385;-54
2021/12/21 03:11:58;;;;;;;18.95;9.35;;;-1.20;99.90;;;;;;5011073;28;20394;-54
2021/12/21 03:14:25;;;;;;;18.27;9.70;;;0.50;99.90;;;;;;5010374;28;20381;-53
2021/12/21 03:16:51;;;;;;;20.85;9.57;;;-1.20;99.90;;;;;;5011152;28;20439;-53
2021/12/21 03:19:17;;;;;;;18.13;8.80;;;-1.30;99.90;;;;;;5010267;28;20496;-53
2021/12/21 03:21:43;;;;;;;20.38;9.40;;;-1.30;99.90;;;;;;5010877;28;20855;-53
2021/12/21 03:24:09;;;;;;;19.27;8.95;;;-0.20;99.90;;;;;;5010765;28;20458;-54
2021/12/21 03:26:36;;;;;;;17.33;8.87;;;-1.30;99.90;;;;;;5007822;28;20432;-53
2021/12/21 03:29:03;;;;;;;18.45;9.73;;;-1.30;99.90;;;;;;5011029;28;20507;-54
2021/12/21 03:31:29;;;;;;;19.15;9.02;;;-1.30;99.90;;;;;;5009249;28;20388;-53
2021/12/21 03:33:55;;;;;;;21.77;8.77;;;-1.50;99.90;;;;;;5008235;28;20809;-54
2021/12/21 03:36:20;;;;;;;19.50;9.70;;;-1.40;99.90;;;;;;5008675;28;20947;-53
2021/12/21 03:38:56;;;;;;;20.47;8.43;;;-1.50;99.90;;;;;;5009586;28;20392;-53
2021/12/21 03:41:22;;;;;;;21.15;9.00;;;-1.50;99.90;;;;;;5007973;28;20401;-53
2021/12/21 03:43:47;;;;;;;24.42;9.63;;;-1.50;99.90;;;;;;5010720;28;20389;-53
2021/12/21 03:46:15;;;;;;;15.90;8.30;;;-1.50;99.90;;;;;;5009955;28;20416;-53
2021/12/21 03:48:45;;;;;;;17.02;8.35;;;-1.50;99.90;;;;;;5010835;28;20975;-53
2021/12/21 03:51:16;;;;;;;19.73;9.00;;;-1.50;99.90;;;;;;5010124;28;20396;-53
2021/12/21 03:53:42;;;;;;;19.58;9.50;;;-1.50;99.90;;;;;;5010876;28;20528;-53
2021/12/21 03:58:49;;;;;;;20.83;9.25;;;-1.50;99.90;;;;;;5009828;28;20399;-53
2021/12/21 04:01:15;;;;;;;18.80;8.85;;;-1.60;99.90;;;;;;5009614;28;20389;-54
2021/12/21 04:03:41;;;;;;;17.77;8.60;;;-1.70;99.90;;;;;;5008374;28;20400;-54
2021/12/21 04:06:07;;;;;;;18.25;9.45;;;-1.70;99.90;;;;;;5010213;28;20384;-54
2021/12/21 04:08:34;;;;;;;21.77;8.63;;;0.00;99.90;;;;;;5008450;28;20488;-56
2021/12/21 04:11:00;;;;;;;23.17;9.68;;;-1.90;99.90;;;;;;5006423;28;20392;-54
2021/12/21 04:13:26;;;;;;;23.73;9.68;;;-2.00;99.90;;;;;;5009710;28;20396;-53
2021/12/21 04:15:53;;;;;;;19.00;9.10;;;-2.00;99.90;;;;;;5010175;28;20385;-54
2021/12/21 04:18:22;;;;;;;22.47;9.73;;;-0.70;99.90;;;;;;5003988;28;20392;-53
2021/12/21 04:20:48;;;;;;;17.77;9.05;;;-1.90;99.90;;;;;;5009961;28;20416;-53
2021/12/21 04:23:14;;;;;;;21.37;9.67;;;-1.90;99.90;;;;;;5009049;28;20897;-53
2021/12/21 04:25:39;;;;;;;17.97;8.50;;;-3.30;99.90;;;;;;5010046;28;20381;-55
2021/12/21 04:28:05;;;;;;;20.92;8.95;;;-2.00;99.90;;;;;;5010152;28;20388;-55
2021/12/21 04:30:31;;;;;;;21.75;9.13;;;-2.00;99.90;;;;;;5009109;28;20401;-56
2021/12/21 04:32:57;;;;;;;17.58;9.00;;;-2.00;99.90;;;;;;5009988;28;20395;-56
2021/12/21 04:35:23;;;;;;;17.63;8.70;;;-2.00;99.90;;;;;;5009189;28;20464;-55
2021/12/21 04:37:56;;;;;;;18.00;8.60;;;-1.90;99.90;;;;;;5009847;28;20419;-56
2021/12/21 04:40:26;;;;;;;17.25;8.85;;;-1.90;99.90;;;;;;5006710;28;20396;-54
2021/12/21 04:42:52;;;;;;;20.00;9.47;;;-1.90;99.90;;;;;;5009963;28;20385;-54
2021/12/21 04:45:18;;;;;;;19.90;10.50;;;-1.80;99.90;;;;;;5008365;28;20392;-54
2021/12/21 04:47:44;;;;;;;20.10;10.37;;;-1.90;99.90;;;;;;5010063;28;20790;-54
2021/12/21 04:50:10;;;;;;;26.47;11.70;;;-1.90;99.90;;;;;;5009463;28;20419;-54
2021/12/21 04:52:36;;;;;;;22.58;10.90;;;-2.00;99.90;;;;;;5009219;28;20904;-55
2021/12/21 04:55:02;;;;;;;18.67;9.90;;;-1.90;99.90;;;;;;5008306;28;20547;-54
2021/12/21 04:57:27;;;;;;;23.95;11.50;;;-1.90;99.90;;;;;;5008974;28;20400;-54
2021/12/21 04:59:53;;;;;;;26.83;11.13;;;-1.90;99.90;;;;;;5009930;28;20431;-54
2021/12/21 05:02:19;;;;;;;26.70;12.50;;;-2.00;99.90;;;;;;5008779;28;20854;-53
2021/12/21 05:04:45;;;;;;;26.85;11.65;;;-2.00;99.90;;;;;;5009505;28;20383;-54
2021/12/21 05:07:12;;;;;;;22.77;10.60;;;-2.00;99.90;;;;;;5009511;28;20385;-54
2021/12/21 05:09:43;;;;;;;24.60;11.00;;;-2.10;99.90;;;;;;5007719;28;20416;-56
2021/12/21 05:12:11;;;;;;;25.50;10.93;;;-2.10;99.90;;;;;;5007598;28;20389;-54
2021/12/21 05:14:37;;;;;;;23.75;11.15;;;-2.10;99.90;;;;;;5008858;28;20380;-54
2021/12/21 05:17:03;;;;;;;25.58;10.77;;;-2.10;99.90;;;;;;5009456;28;20400;-54
2021/12/21 05:19:28;;;;;;;23.35;10.25;;;-2.10;99.90;;;;;;5008272;28;20396;-56
2021/12/21 05:21:54;;;;;;;18.77;9.60;;;-2.10;99.90;;;;;;5009462;28;20757;-56
2021/12/21 05:24:20;;;;;;;21.40;9.57;;;-2.20;99.90;;;;;;5008426;28;20417;-54
2021/12/21 05:26:46;;;;;;;21.92;9.35;;;-2.20;99.90;;;;;;5009254;28;20386;-56
2021/12/21 05:29:12;;;;;;;29.67;11.10;;;-1.60;99.90;;;;;;5009306;28;20497;-56
2021/12/21 05:31:38;;;;;;;22.27;9.50;;;-2.10;99.90;;;;;;5008829;28;20381;-56
2021/12/21 05:34:03;;;;;;;19.90;9.43;;;-2.20;99.90;;;;;;5009143;28;20419;-56
2021/12/21 05:36:29;;;;;;;17.00;9.90;;;-2.20;99.90;;;;;;5008582;28;20385;-55
2021/12/21 05:39:00;;;;;;;17.23;9.33;;;-2.10;99.90;;;;;;5004955;28;20397;-56
2021/12/21 05:41:39;;;;;;;19.63;9.48;;;-2.10;99.90;;;;;;5009333;28;20908;-56
2021/12/21 05:44:04;;;;;;;19.95;9.80;;;-2.10;99.90;;;;;;5009890;28;20732;-56
2021/12/21 05:46:30;;;;;;;16.70;9.02;;;-2.10;99.90;;;;;;5008781;28;20438;-56
2021/12/21 05:48:56;;;;;;;15.57;8.53;;;-2.10;99.90;;;;;;5009366;28;20753;-56
2021/12/21 05:51:21;;;;;;;21.93;9.77;;;-2.10;99.90;;;;;;4991277;28;20730;-54
2021/12/21 05:53:47;;;;;;;19.05;9.68;;;-2.10;99.90;;;;;;5010416;28;20372;-56
2021/12/21 05:56:13;;;;;;;18.48;9.10;;;-2.10;99.90;;;;;;5012803;28;20797;-55
2021/12/21 05:58:39;;;;;;;21.50;9.73;;;-3.20;99.90;;;;;;5011226;28;20473;-56
2021/12/21 06:01:04;;;;;;;19.00;9.00;;;-2.10;99.90;;;;;;5009153;28;20472;-56
2021/12/21 06:03:30;;;;;;;18.37;9.33;;;-2.20;99.90;;;;;;5009004;28;20377;-55
2021/12/21 06:05:55;;;;;;;23.15;9.82;;;-2.20;99.90;;;;;;5012885;28;20703;-55
2021/12/21 06:08:23;;;;;;;23.05;10.90;;;-2.30;99.90;;;;;;5010431;28;20889;-55
2021/12/21 06:10:51;;;;;;;25.63;11.35;;;-2.20;99.90;;;;;;5012600;28;20396;-55
2021/12/21 06:13:46;;;;;;;22.83;10.40;;;-2.20;99.90;;;;;;5011502;28;20412;-55
2021/12/21 06:26:56;;;;;;;21.65;10.90;;;-2.40;99.90;;;;;;5010829;28;20428;-56
2021/12/21 06:29:22;;;;;;;21.00;10.00;;;-2.40;99.90;;;;;;5010939;28;20478;-55
2021/12/21 06:31:48;;;;;;;22.88;10.82;;;-2.50;99.90;;;;;;5011858;28;20905;-55
2021/12/21 06:34:14;;;;;;;22.17;10.70;;;-2.40;99.90;;;;;;5011755;28;20923;-56
2021/12/21 06:36:40;;;;;;;19.20;10.60;;;-2.40;99.90;;;;;;5012047;28;20392;-55
2021/12/21 06:39:06;;;;;;;16.85;9.32;;;-1.70;99.90;;;;;;5012265;28;20404;-55
2021/12/21 06:41:35;;;;;;;21.80;10.38;;;-2.30;99.90;;;;;;5011391;28;20412;-55
2021/12/21 06:44:02;;;;;;;18.80;9.77;;;-1.00;99.90;;;;;;5011970;28;20403;-56
2021/12/21 06:51:54;;;;;;;22.02;10.20;;;-2.30;99.90;;;;;;5012090;28;21081;-55
2021/12/21 06:54:21;;;;;;;24.88;11.10;;;-1.00;99.90;;;;;;5011516;28;20447;-60
2021/12/21 06:56:47;;;;;;;18.48;10.40;;;-2.40;99.90;;;;;;5011548;28;20431;-55
2021/12/21 06:59:13;;;;;;;19.83;9.50;;;-2.40;99.90;;;;;;5011991;28;20443;-55
2021/12/21 07:01:39;;;;;;;20.13;10.60;;;-2.30;99.90;;;;;;5011517;28;20388;-55
2021/12/21 07:04:07;;;;;;;23.00;10.67;;;-2.40;99.90;;;;;;5014534;28;20403;-55
2021/12/21 07:06:41;;;;;;;17.95;9.50;;;-2.50;99.90;;;;;;5015760;28;20401;-55
2021/12/21 07:09:15;;;;;;;18.23;10.15;;;-2.40;99.90;;;;;;5029189;28;20438;-55
2021/12/21 07:11:46;;;;;;;16.75;9.45;;;-1.00;99.90;;;;;;5011492;28;20380;-55
2021/12/21 07:19:43;;;;;;;21.20;10.55;;;-2.30;99.90;;;;;;5030865;28;20386;-55
2021/12/21 07:22:09;;;;;;;19.23;9.80;;;-2.10;99.90;;;;;;5026762;28;20400;-55
2021/12/21 07:24:35;;;;;;;20.98;10.30;;;-2.00;99.90;;;;;;5010539;28;20483;-55
2021/12/21 07:27:01;;;;;;;26.52;11.13;;;-2.00;99.90;;;;;;5011425;28;20454;-55
2021/12/21 07:29:26;;;;;;;18.90;9.13;;;-2.00;99.90;;;;;;5010616;28;20432;-55
2021/12/21 07:31:52;;;;;;;21.52;9.82;;;-2.00;99.90;;;;;;5011572;28;20389;-55
2021/12/21 07:34:18;;;;;;;22.00;9.90;;;-2.00;99.90;;;;;;5010497;28;20539;-55
2021/12/21 07:36:44;;;;;;;21.07;9.60;;;-0.30;99.90;;;;;;5011198;28;20388;-55
2021/12/21 07:39:13;;;;;;;16.50;9.10;;;-2.00;99.90;;;;;;5015165;28;20395;-55
2021/12/21 07:41:40;;;;;;;18.88;9.40;;;-2.00;99.90;;;;;;5030158;28;20402;-55
2021/12/21 07:44:06;;;;;;;18.75;9.18;;;-2.00;99.90;;;;;;5030972;28;20894;-55
2021/12/21 07:46:31;;;;;;;18.83;9.03;;;-2.00;99.90;;;;;;5030003;28;20431;-55
2021/12/21 07:48:57;;;;;;;21.07;9.27;;;-2.00;99.90;;;;;;5030372;28;20868;-55
2021/12/21 07:51:24;;;;;;;19.58;9.02;;;-1.90;99.90;;;;;;5029683;28;20413;-55
2021/12/21 07:53:50;;;;;;;19.73;8.70;;;-2.00;99.90;;;;;;5030933;28;20426;-55
2021/12/21 07:56:16;;;;;;;20.90;9.13;;;-2.00;99.90;;;;;;5030142;28;20411;-55
2021/12/21 07:58:44;;;;;;;18.70;9.40;;;-2.00;99.90;;;;;;5030423;28;20856;-55
2021/12/21 08:01:11;;;;;;;22.77;9.23;;;-2.00;99.90;;;;;;5030225;28;20409;-55
2021/12/21 08:03:38;;;;;;;18.08;10.25;;;-2.00;99.90;;;;;;5029236;28;21093;-55
2021/12/21 08:06:06;;;;;;;17.65;9.05;;;-1.90;99.90;;;;;;5029823;28;20741;-55
2021/12/21 08:08:34;;;;;;;18.90;9.40;;;-1.90;99.90;;;;;;5029291;28;20414;-55
2021/12/21 08:13:40;;;;;;;18.35;9.70;;;-1.80;99.90;;;;;;5022853;28;20388;-55
2021/12/21 08:16:06;;;;;;;19.52;9.85;;;-1.80;99.90;;;;;;5010098;28;20381;-55
2021/12/21 08:18:33;;;;;;;21.35;10.38;;;-1.80;99.90;;;;;;5009734;28;20483;-55
2021/12/21 08:20:58;;;;;;;18.00;10.03;;;-1.70;99.90;;;;;;5010069;28;20464;-55
2021/12/21 08:23:24;;;;;;;23.43;10.43;;;-1.70;99.90;;;;;;5009206;28;20540;-55
2021/12/21 08:25:50;;;;;;;20.30;9.70;;;-0.60;99.90;;;;;;5010328;28;20547;-55
2021/12/21 08:28:16;;;;;;;21.50;10.37;;;-1.70;99.90;;;;;;5010273;28;20377;-55
2021/12/21 08:30:42;;;;;;;23.07;9.73;;;-1.30;99.90;;;;;;5009778;28;20530;-55
2021/12/21 08:33:08;;;;;;;17.97;10.00;;;-1.70;99.90;;;;;;5010280;28;20787;-55
2021/12/21 08:35:33;;;;;;;19.55;10.48;;;-1.50;99.90;;;;;;5009131;28;20387;-53
2021/12/21 08:38:05;;;;;;;23.10;11.10;;;0.10;99.90;;;;;;5009496;28;20389;-53
2021/12/21 08:40:38;;;;;;;24.97;11.33;;;-1.20;99.90;;;;;;5009290;28;20384;-53
2021/12/21 08:43:13;;;;;;;21.70;11.80;;;-1.10;99.90;;;;;;5010118;28;20392;-53
2021/12/21 08:45:42;;;;;;;20.30;11.90;;;-1.10;99.90;;;;;;5009360;28;21091;-52
2021/12/21 08:48:08;;;;;;;24.20;11.05;;;-1.00;99.90;;;;;;5008403;28;20396;-52
2021/12/21 08:50:35;;;;;;;24.75;11.55;;;-0.90;99.90;;;;;;5009099;28;20396;-53
2021/12/21 08:53:01;;;;;;;21.42;11.70;;;-0.70;99.90;;;;;;5009325;28;20405;-53
2021/12/21 08:55:27;;;;;;;24.42;10.88;;;0.30;99.90;;;;;;5008866;28;20384;-53
2021/12/21 08:57:53;;;;;;;22.20;10.45;;;1.00;99.90;;;;;;5008673;28;20387;-53
2021/12/21 09:00:19;;;;;;;21.58;10.90;;;-0.20;99.90;;;;;;5009656;28;20770;-53
2021/12/21 09:02:44;;;;;;;21.73;10.40;;;0.00;99.90;;;;;;5009391;28;20392;-53
2021/12/21 09:05:16;;;;;;;22.50;11.03;;;0.20;99.90;;;;;;5009922;28;20392;-53
2021/12/21 09:07:43;;;;;;;20.98;10.68;;;1.70;99.90;;;;;;5008728;28;20388;-53
2021/12/21 09:10:11;;;;;;;19.42;9.07;;;1.70;99.90;;;;;;5009631;28;20408;-56
2021/12/21 09:12:37;;;;;;;21.88;9.00;;;3.30;99.90;;;;;;5007518;28;21348;-53
2021/12/21 09:15:04;;;;;;;18.13;9.55;;;4.90;99.90;;;;;;5027849;28;20471;-54
2021/12/21 09:17:30;;;;;;;18.23;8.95;;;6.50;99.90;;;;;;5028154;28;20384;-54
2021/12/21 09:19:57;;;;;;;18.40;9.43;;;9.10;99.90;;;;;;5028962;28;20398;-54
2021/12/21 09:22:23;;;;;;;19.15;13.70;;;9.20;99.90;;;;;;5028209;28;20934;-53
2021/12/21 09:24:48;;;;;;;17.63;15.83;;;10.70;99.90;;;;;;5028883;28;20443;-53
2021/12/21 09:27:16;;;;;;;16.48;8.60;;;11.90;95.00;;;;;;5029230;28;20405;-53
2021/12/21 09:29:42;;;;;;;25.95;23.35;;;12.70;91.00;;;;;;5032529;28;20410;-53
2021/12/21 09:32:13;;;;;;;29.25;26.55;;;13.20;83.90;;;;;;5033143;28;20462;-53
2021/12/21 09:34:39;;;;;;;29.17;26.70;;;13.40;81.10;;;;;;5026528;28;20412;-53
2021/12/21 09:37:06;;;;;;;20.75;17.90;;;14.20;76.70;;;;;;5009091;28;20404;-53
2021/12/21 09:39:31;;;;;;;21.10;14.50;;;14.70;72.70;;;;;;4992918;28;20425;-53
2021/12/21 09:41:57;;;;;;;52.90;33.20;;;14.80;69.50;;;;;;4996352;28;20425;-53
2021/12/21 09:44:23;;;;;;;25.23;16.57;;;14.40;67.60;;;;;;5001401;28;20444;-54
2021/12/21 09:46:49;;;;;;;27.52;25.30;;;14.10;68.20;;;;;;4996371;28;20919;-54
2021/12/21 09:49:15;;;;;;;18.20;12.50;;;14.40;68.70;;;;;;5010395;28;20408;-54
2021/12/21 09:51:41;;;;;;;15.52;9.82;;;13.90;67.20;;;;;;5010936;28;20396;-53
2021/12/21 09:54:08;;;;;;;11.73;6.68;;;13.50;68.60;;;;;;5007702;28;20766;-53
2021/12/21 09:56:34;;;;;;;13.87;8.00;;;14.00;67.80;;;;;;5011655;28;20407;-53
2021/12/21 09:59:01;;;;;;;15.00;7.90;;;14.40;66.10;;;;;;5012374;28;20393;-53
2021/12/21 10:01:27;;;;;;;13.55;7.10;;;13.70;65.70;;;;;;5011522;28;20879;-54
2021/12/21 10:03:53;;;;;;;12.38;7.15;;;13.60;67.60;;;;;;5012296;28;20383;-53
2021/12/21 10:06:19;;;;;;;12.63;7.22;;;13.80;66.00;;;;;;5012505;28;20387;-53
2021/12/21 10:08:44;;;;;;;13.70;8.30;;;13.80;67.00;;;;;;5011994;28;20480;-54
2021/12/21 10:11:21;;;;;;;13.35;9.55;;;13.60;67.40;;;;;;5012925;28;20749;-53
2021/12/21 10:13:48;;;;;;;24.38;22.48;;;13.80;65.90;;;;;;5013029;28;20407;-53
2021/12/21 10:16:20;;;;;;;21.67;19.88;;;12.70;67.90;;;;;;5012323;28;20389;-54
2021/12/21 10:18:45;;;;;;;23.15;21.05;;;12.10;70.20;;;;;;5012649;28;20389;-53
2021/12/21 10:21:14;;;;;;;16.30;14.80;;;11.70;71.00;;;;;;5012577;28;20412;-53
2021/12/21 10:23:46;;;;;;;14.47;8.83;;;11.10;73.60;;;;;;5011063;28;20426;-53
2021/12/21 10:26:23;;;;;;;12.93;8.02;;;12.10;71.70;;;;;;5012483;28;20529;-53
2021/12/21 10:28:59;;;;;;;15.95;9.50;;;13.50;68.70;;;;;;5012257;28;20396;-53
2021/12/21 10:31:41;;;;;;;13.73;8.57;;;13.40;67.60;;;;;;5011758;28;20392;-53
2021/12/21 10:34:13;;;;;;;12.20;8.80;;;12.80;69.30;;;;;;5012213;28;20436;-53
2021/12/21 10:36:43;;;;;;;9.98;8.10;;;13.30;67.40;;;;;;5011572;28;20410;-53
2021/12/21 10:39:09;;;;;;;17.73;13.73;;;13.70;67.40;;;;;;5011356;28;20404;-53
2021/12/21 10:41:39;;;;;;;16.80;15.00;;;12.50;68.60;;;;;;5011342;28;20376;-53
2021/12/21 10:44:08;;;;;;;12.15;10.80;;;11.60;72.00;;;;;;5012090;28;20381;-53
2021/12/21 10:46:36;;;;;;;13.37;8.43;;;12.20;69.30;;;;;;5011669;28;20395;-53
2021/12/21 10:49:07;;;;;;;13.45;9.57;;;12.50;69.40;;;;;;5011810;28;20400;-53
2021/12/21 10:51:32;;;;;;;13.82;7.90;;;13.00;68.90;;;;;;5011322;28;20397;-54
2021/12/21 10:53:58;;;;;;;10.47;6.20;;;12.60;70.50;;;;;;5012158;28;20388;-53
2021/12/21 10:56:24;;;;;;;10.60;6.30;;;12.50;72.50;;;;;;5011102;28;20715;-53
2021/12/21 10:58:49;;;;;;;13.48;7.40;;;12.60;68.30;;;;;;5011898;28;20381;-53
2021/12/21 11:01:22;;;;;;;11.00;5.57;;;12.10;67.90;;;;;;5011979;28;20380;-54
2021/12/21 11:03:56;;;;;;;12.65;7.07;;;12.10;68.30;;;;;;5011678;28;20389;-53
2021/12/21 11:06:34;;;;;;;13.85;7.30;;;11.90;68.90;;;;;;5010996;28;20388;-53
2021/12/21 11:09:04;;;;;;;11.27;6.78;;;12.10;67.40;;;;;;5011559;28;20547;-53
2021/12/21 11:11:37;;;;;;;13.85;6.50;;;12.20;67.70;;;;;;5010705;28;20400;-53
2021/12/21 11:14:15;;;;;;;10.27;5.47;;;11.80;67.10;;;;;;5021620;28;20435;-53
2021/12/21 11:16:42;;;;;;;11.35;5.45;;;11.90;68.30;;;;;;5028900;28;20383;-53
2021/12/21 11:19:09;;;;;;;11.30;5.72;;;11.40;67.20;;;;;;5031010;28;20410;-53
2021/12/21 11:21:36;;;;;;;10.88;5.75;;;11.10;69.40;;;;;;5029905;28;20836;-54
2021/12/21 11:24:05;;;;;;;11.40;4.90;;;10.70;70.80;;;;;;5030937;28;20902;-53
2021/12/21 11:26:32;;;;;;;14.70;9.95;;;10.20;69.40;;;;;;5030225;28;20865;-55
2021/12/21 11:29:04;;;;;;;12.43;11.13;;;9.70;72.30;;;;;;5029741;28;20403;-53
2021/12/21 11:31:32;;;;;;;11.37;5.30;;;9.10;75.30;;;;;;5030141;28;20466;-52
2021/12/21 11:33:59;;;;;;;11.55;4.45;;;8.60;78.50;;;;;;5030067;28;20887;-53
2021/12/21 11:39:10;;;;;;;11.43;9.68;;;7.50;78.20;;;;;;5030921;28;21028;-53
2021/12/21 11:41:37;;;;;;;12.38;9.10;;;6.90;81.20;;;;;;5030104;28;20448;-53
2021/12/21 11:44:16;;;;;;;13.23;9.00;;;6.60;85.40;;;;;;5030636;28;20476;-53
2021/12/21 11:47:01;;;;;;;12.82;8.75;;;6.60;85.00;;;;;;5029928;28;20383;-53
2021/12/21 11:49:50;;;;;;;14.85;8.60;;;6.50;88.10;;;;;;5029835;28;20422;-53
2021/12/21 11:52:19;;;;;;;12.20;8.68;;;6.30;90.30;;;;;;5029421;28;20407;-53
2021/12/21 11:54:47;;;;;;;14.60;8.02;;;6.50;90.00;;;;;;5030231;28;20398;-53
2021/12/21 11:57:13;;;;;;;11.60;7.50;;;6.50;90.70;;;;;;5030487;28;20387;-53
2021/12/21 11:59:40;;;;;;;11.32;7.70;;;6.60;91.70;;;;;;5029844;28;20720;-53
2021/12/21 12:02:07;;;;;;;9.75;7.22;;;6.30;91.80;;;;;;5030642;28;20387;-53
2021/12/21 12:04:35;;;;;;;13.32;7.45;;;6.00;92.70;;;;;;5029063;28;20745;-53
2021/12/21 12:07:12;;;;;;;10.55;7.00;;;6.10;93.60;;;;;;5030288;28;20801;-52
2021/12/21 12:09:37;;;;;;;13.35;7.57;;;6.30;93.70;;;;;;5029547;28;20418;-53
2021/12/21 12:12:11;;;;;;;13.03;7.50;;;6.20;94.10;;;;;;5029958;28;20395;-52
2021/12/21 12:14:38;;;;;;;12.10;7.05;;;6.30;93.60;;;;;;5014440;28;20392;-53
2021/12/21 12:17:22;;;;;;;9.90;7.90;;;6.10;94.20;;;;;;5010597;28;20389;-52
2021/12/21 12:19:55;;;;;;;10.38;6.65;;;6.00;93.70;;;;;;5010016;28;20389;-53
2021/12/21 12:22:32;;;;;;;12.30;6.80;;;5.80;94.50;;;;;;5008554;28;20403;-56
2021/12/21 12:24:59;;;;;;;11.87;6.90;;;5.60;95.40;;;;;;5010446;28;20420;-53
2021/12/21 12:27:27;;;;;;;9.63;6.20;;;5.70;95.50;;;;;;5009322;28;20396;-53
2021/12/21 12:29:54;;;;;;;10.33;5.40;;;5.70;94.90;;;;;;5009854;28;20945;-53
2021/12/21 12:32:47;;;;;;;10.60;5.30;;;5.80;95.20;;;;;;5009607;28;20405;-53
2021/12/21 12:35:21;;;;;;;11.02;5.80;;;5.70;95.70;;;;;;5010022;28;20862;-52
2021/12/21 12:38:05;;;;;;;9.57;5.60;;;5.40;95.70;;;;;;5009914;28;20389;-53
2021/12/21 12:40:41;;;;;;;10.27;5.70;;;5.60;96.40;;;;;;5009192;28;20393;-52
2021/12/21 12:43:11;;;;;;;10.10;5.10;;;5.80;95.10;;;;;;5008652;28;20734;-52
2021/12/21 12:45:49;;;;;;;10.02;5.00;;;5.70;95.40;;;;;;5009614;28;20407;-53
2021/12/21 12:48:29;;;;;;;10.57;5.60;;;5.90;95.80;;;;;;5009686;28;20383;-54
2021/12/21 12:50:57;;;;;;;9.50;5.50;;;5.80;96.20;;;;;;5010031;28;20499;-54
2021/12/21 12:53:34;;;;;;;8.23;4.72;;;5.90;95.60;;;;;;5009063;28;20392;-53
2021/12/21 12:56:00;;;;;;;8.73;5.30;;;5.80;95.60;;;;;;5009563;28;20384;-53
2021/12/21 12:58:28;;;;;;;9.40;5.00;;;5.70;96.60;;;;;;5009062;28;20439;-53
2021/12/21 13:00:56;;;;;;;11.13;5.10;;;5.40;97.80;;;;;;5009790;28;20400;-53
2021/12/21 13:03:31;;;;;;;9.88;5.50;;;5.30;96.70;;;;;;5008753;28;20435;-53
2021/12/21 13:05:59;;;;;;;9.15;5.30;;;5.40;97.10;;;;;;5009652;28;20377;-53
2021/12/21 13:08:26;;;;;;;10.70;5.20;;;5.30;97.30;;;;;;5009068;28;20381;-53
2021/12/21 13:10:57;;;;;;;8.75;5.20;;;5.20;98.50;;;;;;5009357;28;20482;-53
2021/12/21 13:13:41;;;;;;;12.53;5.70;;;5.30;97.90;;;;;;5012855;28;20430;-53
2021/12/21 13:16:08;;;;;;;10.93;5.40;;;5.50;97.90;;;;;;5028913;28;20457;-53
2021/12/21 13:18:43;;;;;;;10.18;5.22;;;5.60;97.60;;;;;;5028167;28;20395;-53
2021/12/21 13:21:51;;;;;;;11.02;5.30;;;5.60;99.00;;;;;;5029012;28;20409;-53
2021/12/21 13:24:22;;;;;;;9.70;5.22;;;5.60;98.40;;;;;;5027733;28;20427;-54
2021/12/21 13:26:55;;;;;;;9.32;5.30;;;5.70;98.30;;;;;;5029021;28;20379;-53
2021/12/21 13:29:39;;;;;;;11.73;5.65;;;5.70;97.40;;;;;;5028650;28;20485;-52
2021/12/21 13:32:11;;;;;;;10.10;5.13;;;5.50;98.00;;;;;;5029458;28;20418;-55
2021/12/21 13:34:40;;;;;;;9.90;4.80;;;5.10;98.90;;;;;;5028279;28;20392;-55
2021/12/21 13:37:09;;;;;;;8.77;4.13;;;5.00;99.40;;;;;;5029107;28;20391;-54
2021/12/21 13:39:46;;;;;;;12.68;4.90;;;5.00;99.00;;;;;;5028487;28;20915;-54
2021/12/21 13:42:15;;;;;;;10.80;5.55;;;4.90;99.10;;;;;;5029074;28;20379;-54
2021/12/21 13:44:45;;;;;;;10.20;6.00;;;4.90;99.90;;;;;;5027890;28;20464;-54
2021/12/21 13:47:31;;;;;;;13.43;5.80;;;4.80;99.90;;;;;;5028939;28;20375;-55
2021/12/21 13:50:13;;;;;;;11.55;5.55;;;4.80;99.90;;;;;;5028423;28;20423;-55